Time;durP1;ratioP1;P1;durP2;ratioP2;P2;SDS_P1;SDS_P2;PMS_P1;PMS_P2;Temp;Humidity;BMP_temperature;BMP_pressure;BME280_temperature;BME280_humidity;BME280_pressure;Samples;Min_cycle;Max_cycle;Signal;HPM_P1;HPM_P2
2024/01/07 00:00:34;;;;;;;0.47;0.40;;;6.30;87.00;;;;;;5031375;28;20037;-71
2024/01/07 00:03:00;;;;;;;1.33;0.85;;;6.20;87.70;;;;;;5033109;28;20037;-70
2024/01/07 00:05:26;;;;;;;0.30;0.30;;;6.20;87.80;;;;;;5033174;28;20041;-71
2024/01/07 00:07:52;;;;;;;2.72;1.08;;;6.20;88.30;;;;;;5031910;28;20052;-71
2024/01/07 00:10:18;;;;;;;0.47;0.30;;;6.20;88.40;;;;;;5031208;28;20452;-71
2024/01/07 00:12:45;;;;;;;0.73;0.32;;;6.20;88.60;;;;;;5015518;28;20053;-71
2024/01/07 00:15:12;;;;;;;0.60;0.60;;;6.20;89.10;;;;;;5031556;28;20087;-71
2024/01/07 00:17:37;;;;;;;0.40;0.40;;;6.20;88.90;;;;;;5033358;28;20466;-71
2024/01/07 00:20:05;;;;;;;1.10;0.60;;;6.20;89.20;;;;;;5031090;28;20044;-71
2024/01/07 00:22:31;;;;;;;0.20;0.20;;;6.20;88.60;;;;;;5015308;28;20188;-71
2024/01/07 00:24:57;;;;;;;0.73;0.57;;;6.20;88.20;;;;;;5031532;28;20038;-71
2024/01/07 00:27:23;;;;;;;0.52;0.40;;;6.20;88.50;;;;;;5031350;28;20543;-71
2024/01/07 00:29:49;;;;;;;0.77;0.52;;;6.20;87.90;;;;;;5032710;28;20034;-71
2024/01/07 00:32:15;;;;;;;0.77;0.47;;;6.20;87.60;;;;;;5032491;28;20037;-71
2024/01/07 00:34:41;;;;;;;0.75;0.38;;;6.30;87.90;;;;;;5032833;28;20086;-71
2024/01/07 00:37:07;;;;;;;0.43;0.38;;;6.30;87.70;;;;;;5030953;28;20037;-71
2024/01/07 00:39:33;;;;;;;0.15;0.15;;;6.30;87.60;;;;;;5031183;28;20463;-71
2024/01/07 00:41:59;;;;;;;0.60;0.57;;;6.30;87.90;;;;;;5032312;28;20075;-72
2024/01/07 00:44:25;;;;;;;0.55;0.32;;;6.30;87.90;;;;;;5031388;28;20037;-71
2024/01/07 00:46:51;;;;;;;0.30;0.25;;;6.30;88.10;;;;;;5032666;28;20482;-71
2024/01/07 00:49:17;;;;;;;0.73;0.30;;;6.20;87.90;;;;;;5031082;28;20034;-71
2024/01/07 00:51:43;;;;;;;1.17;0.57;;;6.20;88.20;;;;;;5030538;28;20041;-71
2024/01/07 00:54:09;;;;;;;3.08;1.10;;;6.20;88.40;;;;;;5032469;28;20120;-71
2024/01/07 00:56:35;;;;;;;1.17;0.63;;;6.20;88.30;;;;;;5014714;28;20048;-71
2024/01/07 00:59:02;;;;;;;1.45;0.68;;;6.20;88.30;;;;;;5032345;28;20037;-71
2024/01/07 01:01:28;;;;;;;1.20;0.70;;;6.20;88.00;;;;;;5030393;28;20445;-71
2024/01/07 01:03:54;;;;;;;0.40;0.32;;;6.20;88.00;;;;;;5031134;28;20068;-71
2024/01/07 01:06:20;;;;;;;0.65;0.60;;;6.20;88.40;;;;;;5014261;28;20071;-71
2024/01/07 01:08:46;;;;;;;0.75;0.35;;;6.20;89.00;;;;;;5031015;28;20070;-71
2024/01/07 01:11:12;;;;;;;0.20;0.20;;;6.20;88.10;;;;;;5013802;28;20522;-71
2024/01/07 01:13:38;;;;;;;0.40;0.20;;;6.20;88.40;;;;;;5014575;28;20033;-71
2024/01/07 01:16:04;;;;;;;0.20;0.20;;;6.10;88.40;;;;;;5014256;28;20049;-72
2024/01/07 01:18:30;;;;;;;0.10;0.10;;;6.10;88.10;;;;;;5032242;28;20034;-71
2024/01/07 01:20:56;;;;;;;0.10;0.10;;;6.10;89.10;;;;;;5030164;28;20107;-71
2024/01/07 01:23:22;;;;;;;0.60;0.30;;;6.10;88.70;;;;;;5031068;28;20025;-71
2024/01/07 01:25:49;;;;;;;0.70;0.20;;;6.20;88.40;;;;;;5031951;28;20368;-71
2024/01/07 01:28:15;;;;;;;0.10;0.10;;;6.10;88.10;;;;;;5032209;28;20033;-71
2024/01/07 01:30:41;;;;;;;0.25;0.25;;;6.10;88.30;;;;;;5013830;28;20038;-71
2024/01/07 01:33:07;;;;;;;1.13;0.57;;;6.10;88.40;;;;;;5030932;28;20079;-71
2024/01/07 08:00:29;;;;;;;1.13;0.60;;;5.30;88.90;;;;;;5098842;27;20519;-73
2024/01/07 08:02:55;;;;;;;5.70;2.53;;;5.40;87.00;;;;;;5057746;28;20389;-73
2024/01/07 08:05:22;;;;;;;1.70;1.10;;;5.40;86.30;;;;;;5070587;28;20033;-73
2024/01/07 08:07:48;;;;;;;6.57;4.10;;;5.50;86.10;;;;;;5079229;28;20032;-73
2024/01/07 08:10:14;;;;;;;7.55;3.67;;;5.50;84.90;;;;;;5062070;28;20167;-73
2024/01/07 08:12:40;;;;;;;1.40;0.70;;;5.50;85.00;;;;;;5059804;28;20033;-73
2024/01/07 08:15:07;;;;;;;1.88;1.23;;;5.60;83.90;;;;;;5069039;28;20048;-74
2024/01/07 08:17:33;;;;;;;0.20;0.20;;;5.60;83.50;;;;;;5077443;28;20094;-74
2024/01/07 08:20:01;;;;;;;1.08;0.73;;;5.60;82.70;;;;;;5079797;28;20521;-73
2024/01/07 08:22:27;;;;;;;0.95;0.85;;;5.60;82.40;;;;;;5086343;28;20048;-74
2024/01/07 08:24:53;;;;;;;1.17;0.88;;;5.60;80.90;;;;;;5083814;28;20036;-74
2024/01/07 08:27:20;;;;;;;0.10;0.10;;;5.60;81.50;;;;;;5067897;28;20493;-73
2024/01/07 08:29:46;;;;;;;1.10;0.68;;;5.70;81.80;;;;;;5086085;28;20097;-73
2024/01/07 08:32:12;;;;;;;0.35;0.35;;;5.70;81.70;;;;;;5066184;28;20468;-73
2024/01/07 08:34:39;;;;;;;0.75;0.47;;;5.70;82.00;;;;;;5069776;28;20037;-73
2024/01/07 08:37:07;;;;;;;6.97;1.48;;;5.80;81.70;;;;;;5065204;28;20052;-73
2024/01/07 08:39:33;;;;;;;1.70;0.65;;;5.70;80.90;;;;;;5084284;28;20063;-74
2024/01/07 08:41:59;;;;;;;3.72;0.63;;;5.70;80.80;;;;;;5065410;28;20048;-73
2024/01/07 08:44:25;;;;;;;3.25;0.70;;;5.80;81.20;;;;;;5068348;28;20489;-73
2024/01/07 08:46:51;;;;;;;1.23;0.70;;;5.70;81.50;;;;;;5076275;28;20044;-73
2024/01/07 08:49:17;;;;;;;1.35;1.08;;;5.80;81.80;;;;;;5072956;28;20036;-73
2024/01/07 08:51:43;;;;;;;1.15;0.80;;;5.80;81.50;;;;;;5056419;28;20069;-73
2024/01/07 08:54:09;;;;;;;1.92;1.35;;;5.80;81.70;;;;;;5046303;28;20033;-73
2024/01/07 08:56:35;;;;;;;3.38;1.13;;;5.80;81.90;;;;;;5046773;28;20029;-73
2024/01/07 08:59:02;;;;;;;3.28;2.03;;;5.80;81.20;;;;;;5047862;28;20053;-73
2024/01/07 09:01:28;;;;;;;;;;;5.80;81.00;;;;;;5045720;28;20112;-74
2024/01/07 09:03:54;;;;;;;3.13;2.00;;;5.80;81.50;;;;;;5052965;28;20187;-73
2024/01/07 09:06:20;;;;;;;4.57;1.27;;;5.80;81.00;;;;;;5054388;28;20143;-73
2024/01/07 09:08:46;;;;;;;3.13;1.33;;;5.80;81.00;;;;;;5052985;28;20095;-74
2024/01/07 09:11:13;;;;;;;0.30;0.30;;;5.80;81.10;;;;;;5032776;28;20041;-73
2024/01/07 09:13:39;;;;;;;1.33;0.75;;;5.80;81.00;;;;;;5050660;28;20460;-73
2024/01/07 09:16:06;;;;;;;1.60;0.65;;;5.80;80.80;;;;;;5053812;28;20048;-73
2024/01/07 09:18:32;;;;;;;1.77;1.02;;;5.80;81.20;;;;;;5053378;28;20075;-73
2024/01/07 09:20:58;;;;;;;1.55;1.05;;;5.80;80.50;;;;;;5061299;28;20044;-73
2024/01/07 09:23:24;;;;;;;0.22;0.22;;;5.80;80.60;;;;;;5060860;28;20075;-73
2024/01/07 09:25:50;;;;;;;1.20;0.88;;;5.80;80.50;;;;;;5052690;28;20037;-74
2024/01/07 09:28:16;;;;;;;1.40;0.70;;;5.80;80.20;;;;;;5064485;28;20385;-74
2024/01/07 09:30:42;;;;;;;1.00;0.50;;;5.80;79.70;;;;;;5073380;28;20040;-73
2024/01/07 09:33:08;;;;;;;0.43;0.20;;;5.80;80.10;;;;;;5064975;28;20079;-73
2024/01/07 09:35:34;;;;;;;5.10;1.00;;;5.80;80.50;;;;;;5065289;28;20493;-73
2024/01/07 09:38:00;;;;;;;0.90;0.75;;;5.90;80.10;;;;;;5055834;28;20041;-73
2024/01/07 09:40:27;;;;;;;0.63;0.57;;;5.80;79.80;;;;;;5053880;28;20045;-74
2024/01/07 09:42:53;;;;;;;0.45;0.28;;;5.90;80.30;;;;;;5053046;28;20084;-73
2024/01/07 09:45:19;;;;;;;0.98;0.82;;;5.90;80.00;;;;;;5055655;28;20044;-74
2024/01/07 09:47:45;;;;;;;0.47;0.38;;;5.90;80.10;;;;;;5066031;28;20112;-74
2024/01/07 09:50:13;;;;;;;0.85;0.47;;;5.80;79.50;;;;;;5053048;28;20040;-73
2024/01/07 09:52:44;;;;;;;0.30;0.28;;;5.80;79.30;;;;;;5073196;28;20374;-73
2024/01/07 09:55:19;;;;;;;0.22;0.15;;;5.80;79.10;;;;;;5061336;28;20057;-73
2024/01/07 09:57:45;;;;;;;2.40;0.68;;;5.80;79.00;;;;;;5040307;28;20381;-73
2024/01/07 10:00:12;;;;;;;;;;;5.70;78.70;;;;;;5045598;28;20045;-74
2024/01/07 10:02:41;;;;;;;1.48;0.57;;;5.60;78.00;;;;;;5034474;28;20350;-73
2024/01/07 10:05:07;;;;;;;2.45;0.90;;;5.60;78.50;;;;;;5056003;28;20087;-73
2024/01/07 10:07:33;;;;;;;0.75;0.60;;;5.60;78.60;;;;;;5045210;28;20485;-74
2024/01/07 10:10:13;;;;;;;0.57;0.43;;;5.60;78.50;;;;;;5053289;28;20095;-73
2024/01/07 10:12:39;;;;;;;0.25;0.25;;;5.50;78.00;;;;;;5037676;28;20045;-73
2024/01/07 10:15:06;;;;;;;0.55;0.43;;;5.50;78.60;;;;;;5045247;28;20037;-74
2024/01/07 10:17:32;;;;;;;0.75;0.40;;;5.40;78.50;;;;;;5042909;28;20037;-73
2024/01/07 10:19:58;;;;;;;0.15;0.15;;;5.40;79.00;;;;;;5044416;28;20048;-73
2024/01/07 10:22:24;;;;;;;0.30;0.25;;;5.40;79.20;;;;;;5043982;28;20184;-74
2024/01/07 10:24:52;;;;;;;2.60;0.85;;;5.40;78.80;;;;;;5035758;28;20052;-73
2024/01/07 10:27:18;;;;;;;1.85;1.13;;;5.30;78.20;;;;;;5037100;28;20049;-73
2024/01/07 10:29:50;;;;;;;1.48;0.98;;;5.30;78.80;;;;;;5052152;28;20493;-73
2024/01/07 10:32:19;;;;;;;1.02;0.73;;;5.20;78.60;;;;;;5058754;28;20036;-73
2024/01/07 10:34:47;;;;;;;1.70;0.70;;;5.30;79.00;;;;;;5048439;28;20486;-73
2024/01/07 10:37:13;;;;;;;0.60;0.43;;;5.30;78.70;;;;;;5033377;28;20029;-73
2024/01/07 10:39:39;;;;;;;;;;;5.30;78.80;;;;;;5039350;28;20029;-73
2024/01/07 10:42:06;;;;;;;0.47;0.30;;;5.20;78.80;;;;;;5056488;28;19924;-73
2024/01/07 10:44:33;;;;;;;1.45;0.60;;;5.10;78.90;;;;;;5037662;28;20033;-73
2024/01/07 10:47:00;;;;;;;2.53;0.88;;;5.10;79.10;;;;;;5034557;28;20029;-73
2024/01/07 10:49:29;;;;;;;0.65;0.60;;;5.20;78.90;;;;;;5034898;28;20466;-73
2024/01/07 10:52:14;;;;;;;0.93;0.50;;;5.20;78.80;;;;;;5037605;28;20056;-73
2024/01/07 10:54:44;;;;;;;1.92;1.27;;;5.30;78.90;;;;;;5031688;28;20025;-73
2024/01/07 10:57:47;;;;;;;1.65;1.00;;;5.30;78.50;;;;;;5026085;28;20539;-73
2024/01/07 11:03:24;;;;;;;2.38;1.33;;;5.30;78.20;;;;;;5046371;28;20040;-73
2024/01/07 11:06:16;;;;;;;0.35;0.35;;;5.30;79.20;;;;;;5043213;28;20063;-73
2024/01/07 11:09:23;;;;;;;1.80;0.85;;;5.30;79.10;;;;;;5042221;28;20060;-73
2024/01/07 11:11:50;;;;;;;4.27;2.47;;;5.30;78.90;;;;;;5033143;28;20443;-73
2024/01/07 11:14:56;;;;;;;1.25;0.90;;;5.30;78.30;;;;;;5030744;28;20029;-73
2024/01/07 11:17:42;;;;;;;8.80;3.40;;;5.30;78.70;;;;;;5040746;28;20505;-73
2024/01/07 11:20:29;;;;;;;3.92;1.08;;;5.40;79.00;;;;;;5033356;28;20064;-73
2024/01/07 11:23:32;;;;;;;2.92;1.52;;;5.30;78.60;;;;;;5039994;28;20063;-73
2024/01/07 11:26:03;;;;;;;1.65;0.82;;;5.40;78.60;;;;;;5039619;28;20500;-73
2024/01/07 11:28:53;;;;;;;1.20;0.85;;;5.40;78.50;;;;;;5068837;28;20033;-73
2024/01/07 11:31:21;;;;;;;1.48;0.88;;;5.40;78.10;;;;;;5031454;28;20402;-73
2024/01/07 11:33:49;;;;;;;4.03;1.40;;;5.40;77.80;;;;;;5022586;28;20032;-73
2024/01/07 11:36:36;;;;;;;2.85;1.17;;;5.40;77.50;;;;;;5031548;28;20033;-73
2024/01/07 11:39:04;;;;;;;1.15;0.75;;;5.40;77.50;;;;;;5062766;28;20636;-73
2024/01/07 11:41:35;;;;;;;0.90;0.57;;;5.40;77.30;;;;;;5047114;28;20037;-73
2024/01/07 11:44:02;;;;;;;2.78;1.23;;;5.40;77.40;;;;;;5038464;28;20033;-73
2024/01/07 11:46:30;;;;;;;2.05;1.00;;;5.40;77.70;;;;;;5035525;28;20021;-73
2024/01/07 11:49:15;;;;;;;1.48;0.75;;;5.40;78.00;;;;;;5055277;28;20041;-73
2024/01/07 11:51:41;;;;;;;1.02;0.82;;;5.40;77.80;;;;;;5043302;28;20037;-73
2024/01/07 11:54:08;;;;;;;2.20;1.08;;;5.40;78.00;;;;;;5034384;28;20052;-74
2024/01/07 11:56:34;;;;;;;1.98;0.80;;;5.40;77.60;;;;;;5037265;28;20087;-73
2024/01/07 11:59:00;;;;;;;0.68;0.45;;;5.40;77.70;;;;;;5036749;28;20401;-73
2024/01/07 12:01:26;;;;;;;0.35;0.35;;;5.40;77.60;;;;;;5040180;28;20531;-73
2024/01/07 12:03:52;;;;;;;3.58;1.25;;;5.30;77.30;;;;;;5042416;28;20067;-73
2024/01/07 12:06:20;;;;;;;0.93;0.50;;;5.30;77.10;;;;;;5050906;28;20034;-73
2024/01/07 12:08:46;;;;;;;2.03;0.60;;;5.20;76.90;;;;;;5035001;28;20034;-73
2024/01/07 12:11:13;;;;;;;;;;;5.30;77.40;;;;;;5051146;28;20120;-73
2024/01/07 12:13:40;;;;;;;1.80;1.17;;;5.30;77.20;;;;;;5057719;28;19943;-73
2024/01/07 12:16:08;;;;;;;1.25;0.77;;;5.20;77.10;;;;;;5043352;28;20041;-73
2024/01/07 12:18:36;;;;;;;1.25;0.85;;;5.20;76.90;;;;;;5030519;28;20052;-73
2024/01/07 12:21:03;;;;;;;2.97;1.73;;;5.30;77.10;;;;;;5044241;28;20053;-73
2024/01/07 12:23:37;;;;;;;1.95;1.23;;;5.30;77.40;;;;;;5043176;28;20040;-73
2024/01/07 12:26:11;;;;;;;1.00;0.70;;;5.30;77.30;;;;;;5047129;28;20053;-74
2024/01/07 12:28:38;;;;;;;1.92;1.17;;;5.30;77.20;;;;;;5035026;28;20412;-74
2024/01/07 12:31:05;;;;;;;2.40;1.08;;;5.30;77.10;;;;;;5039769;28;20132;-73
2024/01/07 12:33:33;;;;;;;1.88;1.20;;;5.30;76.40;;;;;;5048327;28;20041;-73
2024/01/07 12:36:00;;;;;;;3.03;1.60;;;5.30;76.50;;;;;;5043952;28;20025;-73
2024/01/07 12:38:27;;;;;;;1.05;0.47;;;5.20;76.00;;;;;;5039554;28;20026;-74
2024/01/07 12:40:54;;;;;;;7.70;1.73;;;5.20;76.60;;;;;;5034776;28;20048;-74
2024/01/07 12:43:20;;;;;;;1.90;1.08;;;5.20;75.90;;;;;;5041353;28;20040;-73
2024/01/07 12:45:47;;;;;;;;;;;5.20;76.00;;;;;;5059539;28;20025;-73
2024/01/07 12:48:14;;;;;;;2.10;0.75;;;5.20;76.70;;;;;;5045024;28;19948;-74
2024/01/07 12:50:40;;;;;;;1.13;0.75;;;5.20;76.70;;;;;;5042496;28;20529;-73
2024/01/07 12:53:06;;;;;;;2.50;0.80;;;5.20;76.60;;;;;;5049210;28;20025;-73
2024/01/07 12:55:32;;;;;;;;;;;5.20;76.40;;;;;;5040396;28;20263;-74
2024/01/07 12:57:58;;;;;;;2.17;1.08;;;5.10;75.90;;;;;;5042754;28;20455;-73
2024/01/07 13:00:26;;;;;;;2.85;2.05;;;5.10;76.60;;;;;;5031156;28;20128;-74
2024/01/07 13:02:52;;;;;;;2.42;1.05;;;5.10;76.30;;;;;;5065528;28;20029;-73
2024/01/07 13:05:18;;;;;;;2.88;1.83;;;5.10;76.90;;;;;;5039845;28;20037;-73
2024/01/07 13:07:46;;;;;;;3.67;1.60;;;5.10;76.70;;;;;;5054849;28;20582;-74
2024/01/07 13:10:12;;;;;;;1.27;0.70;;;5.20;75.90;;;;;;5060956;28;20032;-73
2024/01/07 13:12:39;;;;;;;3.15;1.85;;;5.20;76.70;;;;;;5036912;28;20017;-74
2024/01/07 13:15:06;;;;;;;2.35;1.73;;;5.20;76.60;;;;;;5058512;28;20033;-73
2024/01/07 13:17:32;;;;;;;3.58;2.28;;;5.20;76.60;;;;;;5046396;28;20060;-73
2024/01/07 13:19:59;;;;;;;2.97;1.33;;;5.30;76.70;;;;;;5037665;28;20553;-74
2024/01/07 13:22:26;;;;;;;4.57;1.67;;;5.30;76.60;;;;;;5036778;28;20075;-74
2024/01/07 13:24:54;;;;;;;;;;;5.30;75.90;;;;;;5033417;28;20124;-74
2024/01/07 13:27:21;;;;;;;4.50;2.17;;;5.20;76.10;;;;;;5057644;28;19921;-74
2024/01/07 13:29:48;;;;;;;4.85;1.65;;;5.20;75.60;;;;;;5035402;28;20041;-73
2024/01/07 13:32:18;;;;;;;1.92;1.15;;;5.20;76.60;;;;;;5044024;28;20041;-74
2024/01/07 13:34:44;;;;;;;2.97;1.67;;;5.30;76.60;;;;;;5040197;28;20539;-73
2024/01/07 13:37:10;;;;;;;2.13;1.27;;;5.30;76.40;;;;;;5041786;28;20448;-73
2024/01/07 13:39:38;;;;;;;4.50;1.60;;;5.30;76.70;;;;;;5034779;28;20036;-73
2024/01/07 13:42:04;;;;;;;3.03;1.95;;;5.20;76.70;;;;;;5036288;28;20445;-73
2024/01/07 13:44:31;;;;;;;1.20;0.63;;;5.20;76.80;;;;;;5044851;28;20079;-73
2024/01/07 13:46:57;;;;;;;2.75;1.63;;;5.20;76.70;;;;;;5046395;28;20544;-73
2024/01/07 13:49:23;;;;;;;2.00;1.13;;;5.20;76.60;;;;;;5059085;28;20052;-73
2024/01/07 13:51:49;;;;;;;5.10;3.67;;;5.20;76.60;;;;;;5046608;28;20041;-73
2024/01/07 13:54:16;;;;;;;1.67;1.08;;;5.20;76.60;;;;;;5033906;28;20486;-74
2024/01/07 13:56:43;;;;;;;1.58;1.13;;;5.20;76.30;;;;;;5045277;28;20025;-73
2024/01/07 13:59:10;;;;;;;1.77;0.98;;;5.20;76.00;;;;;;5042865;28;20398;-74
2024/01/07 14:01:37;;;;;;;3.17;1.27;;;5.20;76.00;;;;;;5035442;28;20037;-73
2024/01/07 14:04:05;;;;;;;1.35;0.90;;;5.20;76.10;;;;;;5056776;28;20034;-73
2024/01/07 14:06:31;;;;;;;2.65;1.45;;;5.10;76.10;;;;;;5046698;28;20034;-73
2024/01/07 14:08:58;;;;;;;2.88;0.88;;;5.10;76.00;;;;;;5048188;28;20048;-74
2024/01/07 14:11:26;;;;;;;3.22;1.33;;;5.10;75.90;;;;;;5043293;28;20513;-73
2024/01/07 14:13:52;;;;;;;3.50;2.05;;;5.10;76.00;;;;;;5045003;28;20033;-73
2024/01/07 14:16:18;;;;;;;17.88;2.60;;;5.10;76.20;;;;;;5043475;28;20043;-73
2024/01/07 14:18:44;;;;;;;5.85;2.63;;;5.10;76.10;;;;;;5051320;28;20037;-74
2024/01/07 14:21:10;;;;;;;2.45;1.48;;;5.00;76.00;;;;;;5042642;28;20091;-73
2024/01/07 14:23:36;;;;;;;3.47;1.17;;;5.00;76.00;;;;;;5040914;28;20038;-73
2024/01/07 14:26:03;;;;;;;4.45;1.92;;;5.00;75.70;;;;;;5049058;28;20044;-73
2024/01/07 14:28:29;;;;;;;1.65;1.40;;;5.00;76.10;;;;;;5040371;28;20048;-73
2024/01/07 14:30:55;;;;;;;;;;;5.00;75.70;;;;;;5043058;28;20494;-73
2024/01/07 14:33:21;;;;;;;2.28;1.63;;;5.00;75.80;;;;;;5043677;28;19927;-74
2024/01/07 14:35:47;;;;;;;11.38;2.08;;;4.90;76.00;;;;;;5042392;28;20075;-74
2024/01/07 14:38:13;;;;;;;5.82;2.00;;;5.00;76.10;;;;;;5038048;28;20063;-73
2024/01/07 14:40:41;;;;;;;1.17;0.80;;;5.00;76.20;;;;;;5032515;28;20034;-74
2024/01/07 14:43:07;;;;;;;2.38;1.25;;;5.00;76.00;;;;;;5049454;28;20468;-73
2024/01/07 14:45:33;;;;;;;2.38;1.65;;;4.90;75.90;;;;;;5061920;28;20048;-73
2024/01/07 14:47:59;;;;;;;3.78;2.75;;;5.00;76.10;;;;;;5048272;28;20120;-73
2024/01/07 14:50:25;;;;;;;2.08;1.58;;;5.00;76.00;;;;;;5035440;28;20049;-74
2024/01/07 14:52:51;;;;;;;3.30;1.55;;;5.00;76.00;;;;;;5048591;28;20481;-74
2024/01/07 14:55:19;;;;;;;3.83;1.27;;;5.00;75.80;;;;;;5033008;28;20049;-73
2024/01/07 14:57:45;;;;;;;3.00;1.25;;;5.00;75.80;;;;;;5032191;28;20435;-73
2024/01/07 15:00:11;;;;;;;2.55;0.95;;;4.90;75.70;;;;;;5038290;28;20061;-74
2024/01/07 15:02:38;;;;;;;1.83;0.88;;;4.90;75.10;;;;;;5056424;28;20033;-73
2024/01/07 15:05:04;;;;;;;3.88;2.20;;;4.90;75.60;;;;;;5064663;28;20032;-73
2024/01/07 15:07:30;;;;;;;3.05;1.80;;;4.90;75.00;;;;;;5064891;28;20048;-73
2024/01/07 15:09:56;;;;;;;1.42;0.63;;;4.90;75.70;;;;;;5041724;28;20037;-74
2024/01/07 15:12:22;;;;;;;;;;;4.90;75.70;;;;;;5033003;28;20033;-74
2024/01/07 15:14:49;;;;;;;1.67;1.30;;;4.80;75.60;;;;;;5036097;28;20338;-74
2024/01/07 15:17:18;;;;;;;2.38;1.08;;;4.80;75.70;;;;;;5032832;28;20041;-74
2024/01/07 15:22:31;;;;;;;6.07;2.55;;;4.80;75.90;;;;;;5045323;28;20115;-74
2024/01/07 15:24:57;;;;;;;4.80;3.53;;;4.80;76.00;;;;;;5033019;28;20509;-74
2024/01/07 15:27:23;;;;;;;4.45;2.97;;;4.80;76.10;;;;;;5052270;28;20028;-74
2024/01/07 15:29:49;;;;;;;14.02;3.53;;;4.80;76.10;;;;;;5037486;28;20037;-73
2024/01/07 15:32:15;;;;;;;5.97;2.80;;;4.80;75.90;;;;;;5032671;28;20049;-74
2024/01/07 15:34:41;;;;;;;2.10;0.90;;;4.80;75.70;;;;;;5051222;28;20051;-74
2024/01/07 15:37:07;;;;;;;1.63;1.08;;;4.80;75.70;;;;;;5052186;28;20045;-74
2024/01/07 15:39:35;;;;;;;1.75;1.17;;;4.80;75.90;;;;;;5041008;28;20095;-74
2024/01/07 15:42:01;;;;;;;1.33;0.85;;;4.70;76.00;;;;;;5047332;28;20045;-74
2024/01/07 15:44:27;;;;;;;3.00;2.00;;;4.80;76.00;;;;;;5046430;28;20031;-74
2024/01/07 15:46:54;;;;;;;1.35;0.98;;;4.80;76.00;;;;;;5028460;28;20034;-74
2024/01/07 15:49:20;;;;;;;3.40;1.83;;;4.70;75.80;;;;;;5047735;28;20047;-74
2024/01/07 15:51:46;;;;;;;1.80;0.98;;;4.80;75.70;;;;;;5046971;28;20379;-74
2024/01/07 15:54:12;;;;;;;4.60;1.67;;;4.80;75.40;;;;;;5063105;28;20033;-74
2024/01/07 15:56:38;;;;;;;1.67;0.93;;;4.70;75.10;;;;;;5014563;28;20103;-74
2024/01/07 15:59:04;;;;;;;1.35;1.10;;;4.70;74.80;;;;;;5055511;28;20061;-74
2024/01/07 16:01:31;;;;;;;0.82;0.50;;;4.70;74.90;;;;;;5032498;28;20502;-74
2024/01/07 16:03:57;;;;;;;3.35;1.58;;;4.60;74.60;;;;;;5031163;28;20060;-74
2024/01/07 16:06:23;;;;;;;3.50;1.60;;;4.60;74.70;;;;;;5030807;28;20044;-73
2024/01/07 16:08:49;;;;;;;3.53;2.03;;;4.60;74.70;;;;;;5039133;28;20050;-74
2024/01/07 16:11:17;;;;;;;2.63;1.42;;;4.60;74.90;;;;;;5033991;28;20045;-74
2024/01/07 16:13:43;;;;;;;4.03;2.53;;;4.60;75.10;;;;;;5036624;28;20083;-74
2024/01/07 16:16:10;;;;;;;7.68;2.63;;;4.60;75.20;;;;;;5031208;28;20132;-74
2024/01/07 16:18:37;;;;;;;;;;;4.60;75.30;;;;;;5039937;28;20520;-73
2024/01/07 16:21:03;;;;;;;3.00;1.00;;;4.60;75.20;;;;;;5052548;28;19928;-74
2024/01/07 16:23:30;;;;;;;2.33;1.40;;;4.60;75.10;;;;;;5036303;28;20052;-74
2024/01/07 16:25:56;;;;;;;13.45;6.10;;;4.60;75.50;;;;;;5056355;28;20486;-74
2024/01/07 16:28:23;;;;;;;13.02;6.07;;;4.50;75.40;;;;;;5045519;28;20033;-74
2024/01/07 16:30:49;;;;;;;9.45;3.30;;;4.50;76.00;;;;;;5035453;28;20119;-74
2024/01/07 16:33:15;;;;;;;1.83;1.10;;;4.50;76.10;;;;;;5039838;28;20478;-74
2024/01/07 16:35:42;;;;;;;8.35;4.63;;;4.50;76.20;;;;;;5055384;28;20037;-74
2024/01/07 16:38:09;;;;;;;5.60;4.25;;;4.50;76.10;;;;;;5036858;28;20095;-74
2024/01/07 16:40:35;;;;;;;3.75;2.30;;;4.50;75.90;;;;;;5038942;28;20029;-74
2024/01/07 16:43:02;;;;;;;7.60;2.03;;;4.50;76.20;;;;;;5041341;28;20099;-74
2024/01/07 16:45:29;;;;;;;4.95;1.77;;;4.50;76.40;;;;;;5054113;28;20502;-73
2024/01/07 16:47:56;;;;;;;3.20;1.25;;;4.50;75.90;;;;;;5050960;28;20165;-74
2024/01/07 16:50:25;;;;;;;2.75;1.05;;;4.50;76.30;;;;;;5043716;28;20103;-74
2024/01/07 16:52:54;;;;;;;2.55;1.48;;;4.60;76.20;;;;;;5053397;28;20363;-73
2024/01/07 16:55:23;;;;;;;4.07;2.33;;;4.60;75.60;;;;;;5051423;28;20072;-74
2024/01/07 16:57:49;;;;;;;4.68;2.05;;;4.50;75.70;;;;;;5038088;28;20091;-73
2024/01/07 17:00:15;;;;;;;;;;;4.50;75.50;;;;;;5068757;28;20069;-74
2024/01/07 17:02:42;;;;;;;2.50;1.35;;;4.50;75.90;;;;;;5034034;28;20275;-74
2024/01/07 17:05:11;;;;;;;2.05;1.65;;;4.50;75.40;;;;;;5038023;28;20040;-73
2024/01/07 17:07:37;;;;;;;5.82;3.08;;;4.40;74.70;;;;;;5052062;28;20040;-74
2024/01/07 17:10:07;;;;;;;4.00;2.55;;;4.30;74.80;;;;;;5039514;28;20033;-73
2024/01/07 17:12:33;;;;;;;10.52;5.60;;;4.20;74.50;;;;;;5045095;28;20206;-73
2024/01/07 17:15:02;;;;;;;5.18;3.50;;;4.10;74.90;;;;;;5041298;28;20104;-74
2024/01/07 17:17:28;;;;;;;2.80;2.42;;;4.10;75.00;;;;;;5049457;28;20033;-74
2024/01/07 17:19:55;;;;;;;;;;;4.10;74.40;;;;;;5022556;28;20087;-73
2024/01/07 17:22:21;;;;;;;7.47;2.72;;;4.20;74.60;;;;;;5054183;28;20015;-74
2024/01/07 17:24:47;;;;;;;4.25;1.40;;;4.10;74.80;;;;;;5045025;28;20107;-73
2024/01/07 17:27:13;;;;;;;2.70;1.30;;;4.10;75.10;;;;;;5033696;28;20037;-73
2024/01/07 17:29:39;;;;;;;1.02;0.70;;;4.00;74.80;;;;;;5040421;28;20025;-73
2024/01/07 17:32:10;;;;;;;3.35;2.22;;;4.00;74.50;;;;;;5041561;28;20041;-73
2024/01/07 17:34:36;;;;;;;2.20;1.20;;;3.90;74.00;;;;;;5042445;28;20071;-74
2024/01/07 17:37:03;;;;;;;3.33;1.48;;;3.90;74.80;;;;;;5039601;28;20034;-73
2024/01/07 17:39:32;;;;;;;1.65;1.10;;;4.00;74.20;;;;;;5046234;28;20494;-73
2024/01/07 17:41:58;;;;;;;3.35;2.53;;;4.00;74.60;;;;;;5033003;28;20038;-73
2024/01/07 17:44:24;;;;;;;1.98;0.95;;;4.00;74.70;;;;;;5041182;28;20425;-74
2024/01/07 17:46:50;;;;;;;2.53;1.85;;;4.00;74.70;;;;;;5035341;28;20120;-74
2024/01/07 17:49:16;;;;;;;2.17;0.90;;;4.00;74.80;;;;;;5036959;28;20389;-74
2024/01/07 17:51:44;;;;;;;2.90;2.20;;;3.90;74.90;;;;;;5044753;28;20049;-73
2024/01/07 17:54:11;;;;;;;4.70;2.08;;;3.90;74.90;;;;;;5041277;28;20029;-74
2024/01/07 17:56:38;;;;;;;2.40;1.52;;;3.90;74.20;;;;;;5060747;28;20021;-73
2024/01/07 17:59:04;;;;;;;1.88;0.93;;;3.90;75.70;;;;;;5051082;28;20397;-74
2024/01/07 18:01:30;;;;;;;3.13;1.77;;;3.90;75.00;;;;;;5039439;28;20540;-74
2024/01/07 18:03:56;;;;;;;2.50;1.00;;;3.90;74.30;;;;;;5044800;28;20513;-73
2024/01/07 18:06:22;;;;;;;3.33;1.98;;;3.90;74.50;;;;;;5040704;28;20033;-74
2024/01/07 18:08:48;;;;;;;6.00;2.58;;;3.80;74.50;;;;;;5065975;28;20037;-74
2024/01/07 18:11:15;;;;;;;6.40;2.33;;;3.90;74.60;;;;;;5039617;28;20822;-73
2024/01/07 18:13:42;;;;;;;4.60;2.13;;;3.90;74.60;;;;;;5030273;28;20493;-74
2024/01/07 18:16:12;;;;;;;7.97;3.35;;;3.90;74.60;;;;;;5042452;28;20116;-73
2024/01/07 18:18:38;;;;;;;12.27;6.93;;;3.90;74.60;;;;;;5049045;28;20430;-74
2024/01/07 18:21:04;;;;;;;;;;;3.90;74.10;;;;;;5056997;28;20029;-74
2024/01/07 18:23:30;;;;;;;4.45;3.10;;;3.80;73.90;;;;;;5045486;28;19925;-74
2024/01/07 18:25:56;;;;;;;18.90;9.05;;;3.80;74.50;;;;;;5046099;28;20037;-74
2024/01/07 18:28:22;;;;;;;15.35;9.05;;;3.80;74.50;;;;;;5034349;28;20091;-74
2024/01/07 18:30:48;;;;;;;;;;;3.80;74.30;;;;;;5044811;28;20095;-73
2024/01/07 18:33:14;;;;;;;5.80;2.80;;;3.80;75.30;;;;;;5050468;28;19925;-74
2024/01/07 18:35:41;;;;;;;4.95;2.80;;;3.80;74.50;;;;;;5045436;28;20037;-74
2024/01/07 18:38:08;;;;;;;2.70;1.08;;;3.80;74.30;;;;;;5038285;28;20048;-74
2024/01/07 18:40:36;;;;;;;13.65;6.22;;;3.70;74.30;;;;;;5042481;28;20033;-74
2024/01/07 18:43:05;;;;;;;8.13;4.18;;;3.80;74.60;;;;;;5034508;28;20137;-74
2024/01/07 18:45:31;;;;;;;5.93;3.28;;;3.80;74.50;;;;;;5043581;28;20026;-73
2024/01/07 18:47:57;;;;;;;13.80;6.90;;;3.80;74.40;;;;;;5040080;28;20052;-73
2024/01/07 18:50:23;;;;;;;6.15;4.13;;;3.80;73.90;;;;;;5051241;28;20044;-74
2024/01/07 18:52:49;;;;;;;5.03;2.63;;;3.70;73.90;;;;;;5053050;28;20046;-74
2024/01/07 18:55:17;;;;;;;5.03;2.97;;;3.70;74.00;;;;;;5046744;28;20640;-74
2024/01/07 18:57:45;;;;;;;11.07;7.30;;;3.80;73.90;;;;;;5032425;28;20025;-74
2024/01/07 19:00:12;;;;;;;14.60;5.85;;;3.70;73.40;;;;;;5049530;28;20064;-73
2024/01/07 19:02:38;;;;;;;10.90;9.05;;;3.70;73.40;;;;;;5040278;28;20434;-74
2024/01/07 19:05:06;;;;;;;9.80;6.10;;;3.60;73.20;;;;;;5039464;28;20037;-73
2024/01/07 19:07:32;;;;;;;5.97;4.07;;;3.70;73.90;;;;;;5041982;28;20455;-74
2024/01/07 19:09:58;;;;;;;10.82;6.45;;;3.70;73.80;;;;;;5037568;28;20037;-74
2024/01/07 19:12:25;;;;;;;7.78;4.82;;;3.70;73.90;;;;;;5071409;28;20083;-74
2024/01/07 19:14:51;;;;;;;5.57;2.92;;;3.70;73.50;;;;;;5041257;28;20055;-74
2024/01/07 19:17:17;;;;;;;4.38;1.73;;;3.70;73.80;;;;;;5034493;28;20449;-74
2024/01/07 19:19:43;;;;;;;3.58;1.00;;;3.70;73.90;;;;;;5036266;28;20034;-73
2024/01/07 19:22:09;;;;;;;5.40;1.67;;;3.70;73.90;;;;;;5044565;28;20087;-73
2024/01/07 19:24:54;;;;;;;2.03;1.33;;;3.70;74.00;;;;;;5039383;28;20044;-73
2024/01/07 19:27:22;;;;;;;3.45;2.17;;;3.60;74.10;;;;;;5029023;28;20067;-74
2024/01/07 19:29:49;;;;;;;4.18;1.77;;;3.60;74.10;;;;;;5043881;28;20056;-74
2024/01/07 19:32:15;;;;;;;3.70;2.40;;;3.50;74.00;;;;;;5039939;28;20128;-74